sensor_id;sensor_type;location;lat;lon;timestamp;temperature;humidity
33825;DHT22;20127;48.962;8.342;2023-10-13T00:01:37;18.10;99.90
33825;DHT22;20127;48.962;8.342;2023-10-13T00:04:40;18.10;99.90
33825;DHT22;20127;48.962;8.342;2023-10-13T00:07:42;18.10;99.90
33825;DHT22;20127;48.962;8.342;2023-10-13T00:10:44;18.10;99.90
33825;DHT22;20127;48.962;8.342;2023-10-13T00:13:46;18.00;99.90
33825;DHT22;20127;48.962;8.342;2023-10-13T00:16:51;18.10;99.90
33825;DHT22;20127;48.962;8.342;2023-10-13T00:20:07;18.10;99.90
33825;DHT22;20127;48.962;8.342;2023-10-13T00:23:13;18.10;99.90
33825;DHT22;20127;48.962;8.342;2023-10-13T00:26:15;18.10;99.90
33825;DHT22;20127;48.962;8.342;2023-10-13T00:29:18;18.10;99.90
33825;DHT22;20127;48.962;8.342;2023-10-13T00:32:29;18.20;99.90
33825;DHT22;20127;48.962;8.342;2023-10-13T00:35:33;18.20;99.90
33825;DHT22;20127;48.962;8.342;2023-10-13T00:38:42;18.20;99.90
33825;DHT22;20127;48.962;8.342;2023-10-13T00:41:48;18.30;99.70
33825;DHT22;20127;48.962;8.342;2023-10-13T00:44:53;18.20;99.40
33825;DHT22;20127;48.962;8.342;2023-10-13T00:47:55;18.20;99.00
33825;DHT22;20127;48.962;8.342;2023-10-13T00:51:02;18.30;98.80
33825;DHT22;20127;48.962;8.342;2023-10-13T00:54:07;18.30;98.40
33825;DHT22;20127;48.962;8.342;2023-10-13T00:57:12;18.30;98.10
33825;DHT22;20127;48.962;8.342;2023-10-13T01:00:26;18.30;97.60
33825;DHT22;20127;48.962;8.342;2023-10-13T01:03:29;18.40;97.00
33825;DHT22;20127;48.962;8.342;2023-10-13T01:06:33;18.40;96.50
33825;DHT22;20127;48.962;8.342;2023-10-13T01:09:40;18.50;96.00
33825;DHT22;20127;48.962;8.342;2023-10-13T01:12:43;18.50;95.50
33825;DHT22;20127;48.962;8.342;2023-10-13T01:15:46;18.60;95.10
33825;DHT22;20127;48.962;8.342;2023-10-13T01:18:47;18.60;94.70
33825;DHT22;20127;48.962;8.342;2023-10-13T01:21:50;18.70;94.30
33825;DHT22;20127;48.962;8.342;2023-10-13T01:24:58;18.70;93.80
33825;DHT22;20127;48.962;8.342;2023-10-13T01:28:07;18.80;93.40
33825;DHT22;20127;48.962;8.342;2023-10-13T01:31:10;18.90;93.00
33825;DHT22;20127;48.962;8.342;2023-10-13T01:34:14;19.00;92.50
33825;DHT22;20127;48.962;8.342;2023-10-13T01:37:20;19.10;92.10
33825;DHT22;20127;48.962;8.342;2023-10-13T01:40:22;19.10;91.70
33825;DHT22;20127;48.962;8.342;2023-10-13T01:43:29;19.20;91.30
33825;DHT22;20127;48.962;8.342;2023-10-13T01:46:30;19.30;91.00
33825;DHT22;20127;48.962;8.342;2023-10-13T01:49:32;19.30;90.60
33825;DHT22;20127;48.962;8.342;2023-10-13T01:52:41;19.40;90.30
33825;DHT22;20127;48.962;8.342;2023-10-13T01:55:44;19.50;89.80
33825;DHT22;20127;48.962;8.342;2023-10-13T01:58:45;19.50;89.30
33825;DHT22;20127;48.962;8.342;2023-10-13T02:01:48;19.50;89.40
33825;DHT22;20127;48.962;8.342;2023-10-13T02:04:52;19.50;88.50
33825;DHT22;20127;48.962;8.342;2023-10-13T02:07:57;19.50;88.10
33825;DHT22;20127;48.962;8.342;2023-10-13T02:11:03;19.40;87.70
33825;DHT22;20127;48.962;8.342;2023-10-13T02:14:07;19.30;87.40
33825;DHT22;20127;48.962;8.342;2023-10-13T02:17:12;19.20;87.50
33825;DHT22;20127;48.962;8.342;2023-10-13T02:20:14;19.20;87.70
33825;DHT22;20127;48.962;8.342;2023-10-13T02:23:15;19.10;87.80
33825;DHT22;20127;48.962;8.342;2023-10-13T02:26:18;19.10;88.30
33825;DHT22;20127;48.962;8.342;2023-10-13T02:29:30;19.00;88.80
33825;DHT22;20127;48.962;8.342;2023-10-13T02:32:39;18.80;89.30
33825;DHT22;20127;48.962;8.342;2023-10-13T02:35:42;18.60;90.00
33825;DHT22;20127;48.962;8.342;2023-10-13T02:38:50;18.40;90.30
33825;DHT22;20127;48.962;8.342;2023-10-13T02:41:53;18.10;90.80
33825;DHT22;20127;48.962;8.342;2023-10-13T02:44:56;17.90;91.20
33825;DHT22;20127;48.962;8.342;2023-10-13T02:47:58;17.80;91.50
33825;DHT22;20127;48.962;8.342;2023-10-13T02:51:13;17.60;91.80
33825;DHT22;20127;48.962;8.342;2023-10-13T02:54:18;17.40;92.00
33825;DHT22;20127;48.962;8.342;2023-10-13T02:57:20;17.20;92.20
33825;DHT22;20127;48.962;8.342;2023-10-13T03:00:24;17.10;92.50
33825;DHT22;20127;48.962;8.342;2023-10-13T03:03:31;17.00;92.70
33825;DHT22;20127;48.962;8.342;2023-10-13T03:06:35;16.90;92.90
33825;DHT22;20127;48.962;8.342;2023-10-13T03:09:40;16.80;93.00
33825;DHT22;20127;48.962;8.342;2023-10-13T03:12:51;16.70;93.20
33825;DHT22;20127;48.962;8.342;2023-10-13T03:15:53;16.60;93.50
33825;DHT22;20127;48.962;8.342;2023-10-13T03:18:55;16.50;93.60
33825;DHT22;20127;48.962;8.342;2023-10-13T03:21:57;16.50;93.80
33825;DHT22;20127;48.962;8.342;2023-10-13T03:25:09;16.40;93.90
33825;DHT22;20127;48.962;8.342;2023-10-13T03:28:19;16.30;94.20
33825;DHT22;20127;48.962;8.342;2023-10-13T03:31:26;16.20;94.50
33825;DHT22;20127;48.962;8.342;2023-10-13T03:34:29;16.10;94.70
33825;DHT22;20127;48.962;8.342;2023-10-13T03:37:32;15.90;95.10
33825;DHT22;20127;48.962;8.342;2023-10-13T03:40:39;15.80;95.50
33825;DHT22;20127;48.962;8.342;2023-10-13T03:43:42;15.60;95.80
33825;DHT22;20127;48.962;8.342;2023-10-13T03:46:50;15.50;96.20
33825;DHT22;20127;48.962;8.342;2023-10-13T03:49:54;15.40;96.50
33825;DHT22;20127;48.962;8.342;2023-10-13T03:53:15;15.20;96.80
33825;DHT22;20127;48.962;8.342;2023-10-13T03:56:19;15.10;97.10
33825;DHT22;20127;48.962;8.342;2023-10-13T03:59:28;14.90;97.60
33825;DHT22;20127;48.962;8.342;2023-10-13T04:02:38;14.80;98.00
33825;DHT22;20127;48.962;8.342;2023-10-13T04:05:46;14.70;98.40
33825;DHT22;20127;48.962;8.342;2023-10-13T04:09:01;14.60;99.00
33825;DHT22;20127;48.962;8.342;2023-10-13T04:12:17;14.50;99.40
33825;DHT22;20127;48.962;8.342;2023-10-13T04:15:36;14.50;99.70
33825;DHT22;20127;48.962;8.342;2023-10-13T04:18:42;14.40;99.70
33825;DHT22;20127;48.962;8.342;2023-10-13T04:22:08;14.30;99.90
33825;DHT22;20127;48.962;8.342;2023-10-13T04:25:22;14.30;99.90
33825;DHT22;20127;48.962;8.342;2023-10-13T04:28:35;14.20;99.90
33825;DHT22;20127;48.962;8.342;2023-10-13T04:31:56;14.20;99.90
33825;DHT22;20127;48.962;8.342;2023-10-13T04:35:00;14.10;99.90
33825;DHT22;20127;48.962;8.342;2023-10-13T04:38:11;14.00;99.90
33825;DHT22;20127;48.962;8.342;2023-10-13T04:41:20;14.00;99.90
33825;DHT22;20127;48.962;8.342;2023-10-13T04:44:23;14.00;99.90
33825;DHT22;20127;48.962;8.342;2023-10-13T04:47:41;13.90;99.90
33825;DHT22;20127;48.962;8.342;2023-10-13T04:51:00;13.80;99.90
33825;DHT22;20127;48.962;8.342;2023-10-13T04:54:15;13.70;99.90
33825;DHT22;20127;48.962;8.342;2023-10-13T04:57:29;13.60;99.90
33825;DHT22;20127;48.962;8.342;2023-10-13T05:00:34;13.60;99.90
33825;DHT22;20127;48.962;8.342;2023-10-13T05:03:58;13.50;99.90
33825;DHT22;20127;48.962;8.342;2023-10-13T05:07:22;13.50;99.90
33825;DHT22;20127;48.962;8.342;2023-10-13T05:10:41;13.40;99.90
33825;DHT22;20127;48.962;8.342;2023-10-13T05:14:00;13.40;99.90
33825;DHT22;20127;48.962;8.342;2023-10-13T05:17:19;13.40;99.90
33825;DHT22;20127;48.962;8.342;2023-10-13T05:20:40;13.40;99.90
33825;DHT22;20127;48.962;8.342;2023-10-13T05:23:59;13.50;99.90
33825;DHT22;20127;48.962;8.342;2023-10-13T05:27:18;13.60;99.90
33825;DHT22;20127;48.962;8.342;2023-10-13T05:30:39;13.70;99.90
33825;DHT22;20127;48.962;8.342;2023-10-13T05:33:58;13.70;99.90
33825;DHT22;20127;48.962;8.342;2023-10-13T05:37:18;13.80;99.90
33825;DHT22;20127;48.962;8.342;2023-10-13T05:40:38;13.80;99.90
33825;DHT22;20127;48.962;8.342;2023-10-13T05:43:57;13.80;99.90
33825;DHT22;20127;48.962;8.342;2023-10-13T05:47:16;13.80;99.90
33825;DHT22;20127;48.962;8.342;2023-10-13T05:50:47;13.90;99.90
33825;DHT22;20127;48.962;8.342;2023-10-13T05:54:12;14.00;99.90
33825;DHT22;20127;48.962;8.342;2023-10-13T05:57:32;14.00;99.90
33825;DHT22;20127;48.962;8.342;2023-10-13T06:00:52;14.10;99.90
33825;DHT22;20127;48.962;8.342;2023-10-13T06:04:12;14.10;99.90
33825;DHT22;20127;48.962;8.342;2023-10-13T06:07:31;14.10;99.90
33825;DHT22;20127;48.962;8.342;2023-10-13T06:11:01;14.10;99.90
33825;DHT22;20127;48.962;8.342;2023-10-13T06:14:20;14.10;99.90
33825;DHT22;20127;48.962;8.342;2023-10-13T06:17:39;14.10;99.90
33825;DHT22;20127;48.962;8.342;2023-10-13T06:21:01;14.10;99.90
33825;DHT22;20127;48.962;8.342;2023-10-13T06:24:20;14.10;99.90
33825;DHT22;20127;48.962;8.342;2023-10-13T06:27:37;14.00;99.90
33825;DHT22;20127;48.962;8.342;2023-10-13T06:30:58;14.00;99.90
33825;DHT22;20127;48.962;8.342;2023-10-13T06:34:01;14.00;99.90
33825;DHT22;20127;48.962;8.342;2023-10-13T06:37:04;14.10;99.90
33825;DHT22;20127;48.962;8.342;2023-10-13T06:40:22;14.10;99.90
33825;DHT22;20127;48.962;8.342;2023-10-13T06:43:27;14.20;99.90
33825;DHT22;20127;48.962;8.342;2023-10-13T06:46:33;14.20;99.90
33825;DHT22;20127;48.962;8.342;2023-10-13T06:49:35;14.30;99.90
33825;DHT22;20127;48.962;8.342;2023-10-13T06:52:39;14.40;99.90
33825;DHT22;20127;48.962;8.342;2023-10-13T06:55:42;14.70;99.90
33825;DHT22;20127;48.962;8.342;2023-10-13T06:58:48;14.90;99.90
33825;DHT22;20127;48.962;8.342;2023-10-13T07:01:51;15.20;99.90
33825;DHT22;20127;48.962;8.342;2023-10-13T07:04:53;15.50;99.90
33825;DHT22;20127;48.962;8.342;2023-10-13T07:07:57;15.70;99.90
33825;DHT22;20127;48.962;8.342;2023-10-13T07:11:00;16.00;99.90
33825;DHT22;20127;48.962;8.342;2023-10-13T07:14:07;16.30;99.90
33825;DHT22;20127;48.962;8.342;2023-10-13T07:17:11;16.70;99.90
33825;DHT22;20127;48.962;8.342;2023-10-13T07:20:13;17.20;99.90
33825;DHT22;20127;48.962;8.342;2023-10-13T07:23:24;17.60;99.90
33825;DHT22;20127;48.962;8.342;2023-10-13T07:26:25;18.00;99.90
33825;DHT22;20127;48.962;8.342;2023-10-13T07:29:30;18.50;99.90
33825;DHT22;20127;48.962;8.342;2023-10-13T07:32:34;18.90;99.90
33825;DHT22;20127;48.962;8.342;2023-10-13T07:35:36;19.30;99.90
33825;DHT22;20127;48.962;8.342;2023-10-13T07:38:37;19.70;99.90
33825;DHT22;20127;48.962;8.342;2023-10-13T07:41:42;20.10;99.10
33825;DHT22;20127;48.962;8.342;2023-10-13T07:44:45;20.50;98.00
33825;DHT22;20127;48.962;8.342;2023-10-13T07:47:47;21.00;96.20
33825;DHT22;20127;48.962;8.342;2023-10-13T07:50:59;21.30;94.60
33825;DHT22;20127;48.962;8.342;2023-10-13T07:54:03;21.70;93.10
33825;DHT22;20127;48.962;8.342;2023-10-13T07:57:09;22.00;92.00
33825;DHT22;20127;48.962;8.342;2023-10-13T08:00:16;22.40;90.50
33825;DHT22;20127;48.962;8.342;2023-10-13T08:03:29;22.80;88.90
33825;DHT22;20127;48.962;8.342;2023-10-13T08:06:43;23.00;86.20
33825;DHT22;20127;48.962;8.342;2023-10-13T08:09:45;23.30;83.80
33825;DHT22;20127;48.962;8.342;2023-10-13T08:12:52;23.60;82.10
33825;DHT22;20127;48.962;8.342;2023-10-13T08:15:56;23.80;79.40
33825;DHT22;20127;48.962;8.342;2023-10-13T08:19:06;24.00;77.80
33825;DHT22;20127;48.962;8.342;2023-10-13T08:22:12;24.20;76.60
33825;DHT22;20127;48.962;8.342;2023-10-13T08:25:25;24.50;75.60
33825;DHT22;20127;48.962;8.342;2023-10-13T08:28:47;25.10;74.30
33825;DHT22;20127;48.962;8.342;2023-10-13T08:31:56;25.60;72.30
33825;DHT22;20127;48.962;8.342;2023-10-13T08:35:14;25.80;70.60
33825;DHT22;20127;48.962;8.342;2023-10-13T08:38:35;26.00;70.10
33825;DHT22;20127;48.962;8.342;2023-10-13T08:41:51;26.40;68.50
33825;DHT22;20127;48.962;8.342;2023-10-13T08:45:13;26.60;67.30
33825;DHT22;20127;48.962;8.342;2023-10-13T08:48:43;26.90;66.20
33825;DHT22;20127;48.962;8.342;2023-10-13T08:51:47;27.10;65.10
33825;DHT22;20127;48.962;8.342;2023-10-13T08:54:52;27.50;63.80
33825;DHT22;20127;48.962;8.342;2023-10-13T08:58:05;27.80;62.70
33825;DHT22;20127;48.962;8.342;2023-10-13T09:01:14;28.00;61.40
33825;DHT22;20127;48.962;8.342;2023-10-13T09:04:36;28.10;59.60
33825;DHT22;20127;48.962;8.342;2023-10-13T09:07:44;28.00;58.50
33825;DHT22;20127;48.962;8.342;2023-10-13T09:10:47;27.80;56.70
33825;DHT22;20127;48.962;8.342;2023-10-13T09:14:12;27.40;56.50
33825;DHT22;20127;48.962;8.342;2023-10-13T09:17:41;27.50;56.30
33825;DHT22;20127;48.962;8.342;2023-10-13T09:20:44;27.90;55.80
33825;DHT22;20127;48.962;8.342;2023-10-13T09:23:46;28.20;55.00
33825;DHT22;20127;48.962;8.342;2023-10-13T09:26:49;28.40;54.30
33825;DHT22;20127;48.962;8.342;2023-10-13T09:29:57;28.60;53.20
33825;DHT22;20127;48.962;8.342;2023-10-13T09:33:06;28.70;53.10
33825;DHT22;20127;48.962;8.342;2023-10-13T09:36:10;29.00;52.30
33825;DHT22;20127;48.962;8.342;2023-10-13T09:39:14;29.40;51.80
33825;DHT22;20127;48.962;8.342;2023-10-13T09:42:30;29.40;50.90
33825;DHT22;20127;48.962;8.342;2023-10-13T09:45:35;29.30;49.90
33825;DHT22;20127;48.962;8.342;2023-10-13T09:48:43;29.00;49.80
33825;DHT22;20127;48.962;8.342;2023-10-13T09:51:48;29.00;49.40
33825;DHT22;20127;48.962;8.342;2023-10-13T09:55:11;29.00;49.00
33825;DHT22;20127;48.962;8.342;2023-10-13T09:58:16;29.20;49.10
33825;DHT22;20127;48.962;8.342;2023-10-13T10:01:24;29.50;48.50
33825;DHT22;20127;48.962;8.342;2023-10-13T10:04:33;30.00;47.70
33825;DHT22;20127;48.962;8.342;2023-10-13T10:07:41;30.20;47.40
33825;DHT22;20127;48.962;8.342;2023-10-13T10:10:50;30.30;47.10
33825;DHT22;20127;48.962;8.342;2023-10-13T10:14:01;30.50;46.60
33825;DHT22;20127;48.962;8.342;2023-10-13T10:17:07;30.70;45.90
33825;DHT22;20127;48.962;8.342;2023-10-13T10:20:09;30.60;45.30
33825;DHT22;20127;48.962;8.342;2023-10-13T10:23:25;30.50;45.10
33825;DHT22;20127;48.962;8.342;2023-10-13T10:26:29;30.50;45.00
33825;DHT22;20127;48.962;8.342;2023-10-13T10:29:31;30.80;44.80
33825;DHT22;20127;48.962;8.342;2023-10-13T10:32:35;30.90;44.50
33825;DHT22;20127;48.962;8.342;2023-10-13T10:35:36;31.00;44.40
33825;DHT22;20127;48.962;8.342;2023-10-13T10:38:51;31.40;44.10
33825;DHT22;20127;48.962;8.342;2023-10-13T10:41:54;31.60;43.20
33825;DHT22;20127;48.962;8.342;2023-10-13T10:45:01;31.50;42.60
33825;DHT22;20127;48.962;8.342;2023-10-13T10:48:11;31.30;42.80
33825;DHT22;20127;48.962;8.342;2023-10-13T10:51:18;31.50;42.50
33825;DHT22;20127;48.962;8.342;2023-10-13T10:54:24;31.70;42.20
33825;DHT22;20127;48.962;8.342;2023-10-13T10:57:30;31.80;41.60
33825;DHT22;20127;48.962;8.342;2023-10-13T11:00:37;31.90;41.20
33825;DHT22;20127;48.962;8.342;2023-10-13T11:03:56;31.90;41.40
33825;DHT22;20127;48.962;8.342;2023-10-13T11:06:58;32.00;40.60
33825;DHT22;20127;48.962;8.342;2023-10-13T11:10:08;32.00;40.80
33825;DHT22;20127;48.962;8.342;2023-10-13T11:13:13;32.00;40.30
33825;DHT22;20127;48.962;8.342;2023-10-13T11:16:22;31.90;40.70
33825;DHT22;20127;48.962;8.342;2023-10-13T11:19:35;32.00;40.50
33825;DHT22;20127;48.962;8.342;2023-10-13T11:22:37;32.10;40.80
33825;DHT22;20127;48.962;8.342;2023-10-13T11:25:44;32.30;40.50
33825;DHT22;20127;48.962;8.342;2023-10-13T11:28:50;32.30;40.30
33825;DHT22;20127;48.962;8.342;2023-10-13T11:31:52;32.40;39.90
33825;DHT22;20127;48.962;8.342;2023-10-13T11:34:58;32.20;40.20
33825;DHT22;20127;48.962;8.342;2023-10-13T11:38:01;32.10;40.00
33825;DHT22;20127;48.962;8.342;2023-10-13T11:41:14;32.00;39.90
33825;DHT22;20127;48.962;8.342;2023-10-13T11:44:20;32.00;39.80
33825;DHT22;20127;48.962;8.342;2023-10-13T11:47:31;32.00;39.80
33825;DHT22;20127;48.962;8.342;2023-10-13T11:50:48;32.00;39.60
33825;DHT22;20127;48.962;8.342;2023-10-13T11:53:50;32.00;39.50
33825;DHT22;20127;48.962;8.342;2023-10-13T11:56:54;32.00;39.50
33825;DHT22;20127;48.962;8.342;2023-10-13T11:59:58;32.00;39.30
33825;DHT22;20127;48.962;8.342;2023-10-13T12:03:25;32.10;39.70
33825;DHT22;20127;48.962;8.342;2023-10-13T12:06:44;32.40;39.30
33825;DHT22;20127;48.962;8.342;2023-10-13T12:09:59;32.10;39.00
33825;DHT22;20127;48.962;8.342;2023-10-13T12:13:18;31.90;39.00
33825;DHT22;20127;48.962;8.342;2023-10-13T12:16:21;31.90;39.20
33825;DHT22;20127;48.962;8.342;2023-10-13T12:19:23;31.90;39.20
33825;DHT22;20127;48.962;8.342;2023-10-13T12:22:27;32.00;39.20
33825;DHT22;20127;48.962;8.342;2023-10-13T12:25:29;32.10;39.10
33825;DHT22;20127;48.962;8.342;2023-10-13T12:28:46;32.30;39.00
33825;DHT22;20127;48.962;8.342;2023-10-13T12:31:55;32.30;38.80
33825;DHT22;20127;48.962;8.342;2023-10-13T12:35:08;32.20;38.80
33825;DHT22;20127;48.962;8.342;2023-10-13T12:38:30;32.00;38.70
33825;DHT22;20127;48.962;8.342;2023-10-13T12:41:51;32.10;38.90
33825;DHT22;20127;48.962;8.342;2023-10-13T12:45:11;32.00;39.00
33825;DHT22;20127;48.962;8.342;2023-10-13T12:48:45;32.20;39.10
33825;DHT22;20127;48.962;8.342;2023-10-13T12:52:16;32.20;39.00
33825;DHT22;20127;48.962;8.342;2023-10-13T12:55:19;32.40;38.90
33825;DHT22;20127;48.962;8.342;2023-10-13T12:58:25;32.50;38.80
33825;DHT22;20127;48.962;8.342;2023-10-13T13:01:29;32.50;38.50
33825;DHT22;20127;48.962;8.342;2023-10-13T13:04:34;32.60;38.30
33825;DHT22;20127;48.962;8.342;2023-10-13T13:07:38;32.60;39.10
33825;DHT22;20127;48.962;8.342;2023-10-13T13:10:47;32.50;37.80
33825;DHT22;20127;48.962;8.342;2023-10-13T13:13:49;32.40;38.10
33825;DHT22;20127;48.962;8.342;2023-10-13T13:16:53;32.40;38.00
33825;DHT22;20127;48.962;8.342;2023-10-13T13:19:54;32.30;37.80
33825;DHT22;20127;48.962;8.342;2023-10-13T13:22:56;32.00;37.90
33825;DHT22;20127;48.962;8.342;2023-10-13T13:26:03;31.90;38.20
33825;DHT22;20127;48.962;8.342;2023-10-13T13:29:15;31.70;38.20
33825;DHT22;20127;48.962;8.342;2023-10-13T13:32:19;31.60;38.60
33825;DHT22;20127;48.962;8.342;2023-10-13T13:35:24;31.70;38.50
33825;DHT22;20127;48.962;8.342;2023-10-13T13:38:33;31.70;38.60
33825;DHT22;20127;48.962;8.342;2023-10-13T13:41:35;31.90;38.50
33825;DHT22;20127;48.962;8.342;2023-10-13T13:44:38;32.10;38.30
33825;DHT22;20127;48.962;8.342;2023-10-13T13:47:45;32.10;38.10
33825;DHT22;20127;48.962;8.342;2023-10-13T13:50:46;31.90;38.20
33825;DHT22;20127;48.962;8.342;2023-10-13T13:53:53;31.90;38.40
33825;DHT22;20127;48.962;8.342;2023-10-13T13:56:55;32.00;38.30
33825;DHT22;20127;48.962;8.342;2023-10-13T13:59:57;31.90;38.20
33825;DHT22;20127;48.962;8.342;2023-10-13T14:03:00;31.80;38.50
33825;DHT22;20127;48.962;8.342;2023-10-13T14:06:02;31.80;38.60
33825;DHT22;20127;48.962;8.342;2023-10-13T14:09:04;31.80;38.50
33825;DHT22;20127;48.962;8.342;2023-10-13T14:12:15;31.90;38.30
33825;DHT22;20127;48.962;8.342;2023-10-13T14:15:41;31.90;38.10
33825;DHT22;20127;48.962;8.342;2023-10-13T14:18:47;31.70;38.10
33825;DHT22;20127;48.962;8.342;2023-10-13T14:21:49;31.90;38.30
33825;DHT22;20127;48.962;8.342;2023-10-13T14:24:53;32.00;38.20
33825;DHT22;20127;48.962;8.342;2023-10-13T14:27:59;31.90;38.00
33825;DHT22;20127;48.962;8.342;2023-10-13T14:31:04;31.80;38.00
33825;DHT22;20127;48.962;8.342;2023-10-13T14:34:11;31.80;38.10
33825;DHT22;20127;48.962;8.342;2023-10-13T14:37:13;31.70;38.20
33825;DHT22;20127;48.962;8.342;2023-10-13T14:40:21;31.60;38.30
33825;DHT22;20127;48.962;8.342;2023-10-13T14:43:23;31.50;38.40
33825;DHT22;20127;48.962;8.342;2023-10-13T14:46:27;31.40;38.60
33825;DHT22;20127;48.962;8.342;2023-10-13T14:49:30;31.50;38.60
33825;DHT22;20127;48.962;8.342;2023-10-13T14:52:32;31.50;38.40
33825;DHT22;20127;48.962;8.342;2023-10-13T14:55:34;31.40;38.40
33825;DHT22;20127;48.962;8.342;2023-10-13T14:58:39;31.20;38.10
33825;DHT22;20127;48.962;8.342;2023-10-13T15:01:42;31.10;38.10
33825;DHT22;20127;48.962;8.342;2023-10-13T15:04:46;30.90;38.20
33825;DHT22;20127;48.962;8.342;2023-10-13T15:07:48;30.60;38.10
33825;DHT22;20127;48.962;8.342;2023-10-13T15:10:51;30.30;38.00
33825;DHT22;20127;48.962;8.342;2023-10-13T15:13:54;30.00;38.30
33825;DHT22;20127;48.962;8.342;2023-10-13T15:16:56;29.70;38.50
33825;DHT22;20127;48.962;8.342;2023-10-13T15:20:02;29.40;38.50
33825;DHT22;20127;48.962;8.342;2023-10-13T15:23:04;29.20;39.30
33825;DHT22;20127;48.962;8.342;2023-10-13T15:26:06;29.00;38.80
33825;DHT22;20127;48.962;8.342;2023-10-13T15:29:10;28.70;38.70
33825;DHT22;20127;48.962;8.342;2023-10-13T15:32:12;28.60;39.10
33825;DHT22;20127;48.962;8.342;2023-10-13T15:35:33;28.30;39.10
33825;DHT22;20127;48.962;8.342;2023-10-13T15:38:35;28.20;39.30
33825;DHT22;20127;48.962;8.342;2023-10-13T15:41:38;28.00;39.50
33825;DHT22;20127;48.962;8.342;2023-10-13T15:44:41;27.80;39.60
33825;DHT22;20127;48.962;8.342;2023-10-13T15:47:44;27.70;39.80
33825;DHT22;20127;48.962;8.342;2023-10-13T15:50:47;27.60;39.90
33825;DHT22;20127;48.962;8.342;2023-10-13T15:53:50;27.50;40.10
33825;DHT22;20127;48.962;8.342;2023-10-13T15:56:53;27.40;40.10
33825;DHT22;20127;48.962;8.342;2023-10-13T15:59:56;27.30;40.40
33825;DHT22;20127;48.962;8.342;2023-10-13T16:02:57;27.20;40.70
33825;DHT22;20127;48.962;8.342;2023-10-13T16:06:03;27.00;40.80
33825;DHT22;20127;48.962;8.342;2023-10-13T16:09:10;26.90;41.00
33825;DHT22;20127;48.962;8.342;2023-10-13T16:12:15;26.80;41.40
33825;DHT22;20127;48.962;8.342;2023-10-13T16:15:17;26.60;41.60
33825;DHT22;20127;48.962;8.342;2023-10-13T16:18:21;26.50;42.00
33825;DHT22;20127;48.962;8.342;2023-10-13T16:21:24;26.30;42.10
33825;DHT22;20127;48.962;8.342;2023-10-13T16:24:26;26.10;42.50
33825;DHT22;20127;48.962;8.342;2023-10-13T16:27:28;26.00;42.70
33825;DHT22;20127;48.962;8.342;2023-10-13T16:30:31;25.80;43.00
33825;DHT22;20127;48.962;8.342;2023-10-13T16:33:32;25.60;43.10
33825;DHT22;20127;48.962;8.342;2023-10-13T16:36:37;25.40;43.30
33825;DHT22;20127;48.962;8.342;2023-10-13T16:39:39;25.20;43.40
33825;DHT22;20127;48.962;8.342;2023-10-13T16:42:40;25.00;43.70
33825;DHT22;20127;48.962;8.342;2023-10-13T16:45:42;24.80;44.20
33825;DHT22;20127;48.962;8.342;2023-10-13T16:48:45;24.60;44.80
33825;DHT22;20127;48.962;8.342;2023-10-13T16:51:50;24.40;45.80
33825;DHT22;20127;48.962;8.342;2023-10-13T16:54:52;24.10;46.80
33825;DHT22;20127;48.962;8.342;2023-10-13T16:57:53;23.70;47.80
33825;DHT22;20127;48.962;8.342;2023-10-13T17:00:55;23.40;48.70
33825;DHT22;20127;48.962;8.342;2023-10-13T17:03:57;23.10;49.50
33825;DHT22;20127;48.962;8.342;2023-10-13T17:07:00;22.90;49.80
33825;DHT22;20127;48.962;8.342;2023-10-13T17:10:02;22.70;50.30
33825;DHT22;20127;48.962;8.342;2023-10-13T17:13:06;22.60;50.70
33825;DHT22;20127;48.962;8.342;2023-10-13T17:16:12;22.40;51.40
33825;DHT22;20127;48.962;8.342;2023-10-13T17:19:17;22.20;52.10
33825;DHT22;20127;48.962;8.342;2023-10-13T17:22:21;22.00;51.90
33825;DHT22;20127;48.962;8.342;2023-10-13T17:25:23;21.90;52.60
33825;DHT22;20127;48.962;8.342;2023-10-13T17:28:26;21.80;51.80
33825;DHT22;20127;48.962;8.342;2023-10-13T17:31:27;21.80;51.80
33825;DHT22;20127;48.962;8.342;2023-10-13T17:34:32;21.80;51.70
33825;DHT22;20127;48.962;8.342;2023-10-13T17:37:35;21.70;51.60
33825;DHT22;20127;48.962;8.342;2023-10-13T17:40:38;21.70;51.30
33825;DHT22;20127;48.962;8.342;2023-10-13T17:43:40;21.60;51.60
33825;DHT22;20127;48.962;8.342;2023-10-13T17:46:42;21.50;52.30
33825;DHT22;20127;48.962;8.342;2023-10-13T17:49:43;21.40;52.90
33825;DHT22;20127;48.962;8.342;2023-10-13T17:52:46;21.30;53.80
33825;DHT22;20127;48.962;8.342;2023-10-13T17:55:49;21.10;54.80
33825;DHT22;20127;48.962;8.342;2023-10-13T17:58:52;20.90;55.30
33825;DHT22;20127;48.962;8.342;2023-10-13T18:01:54;20.60;55.20
33825;DHT22;20127;48.962;8.342;2023-10-13T18:04:56;20.50;55.90
33825;DHT22;20127;48.962;8.342;2023-10-13T18:07:59;20.40;56.40
33825;DHT22;20127;48.962;8.342;2023-10-13T18:11:01;20.30;56.70
33825;DHT22;20127;48.962;8.342;2023-10-13T18:14:03;20.30;56.00
33825;DHT22;20127;48.962;8.342;2023-10-13T18:17:06;20.30;55.50
33825;DHT22;20127;48.962;8.342;2023-10-13T18:20:09;20.40;55.60
33825;DHT22;20127;48.962;8.342;2023-10-13T18:23:16;20.40;55.80
33825;DHT22;20127;48.962;8.342;2023-10-13T18:26:18;20.30;55.90
33825;DHT22;20127;48.962;8.342;2023-10-13T18:29:21;20.30;56.30
33825;DHT22;20127;48.962;8.342;2023-10-13T18:32:22;20.40;57.00
33825;DHT22;20127;48.962;8.342;2023-10-13T18:35:24;20.30;57.00
33825;DHT22;20127;48.962;8.342;2023-10-13T18:38:28;20.30;57.10
33825;DHT22;20127;48.962;8.342;2023-10-13T18:41:31;20.30;56.70
33825;DHT22;20127;48.962;8.342;2023-10-13T18:44:36;20.50;55.60
33825;DHT22;20127;48.962;8.342;2023-10-13T18:47:38;21.00;54.50
33825;DHT22;20127;48.962;8.342;2023-10-13T18:50:40;21.50;53.30
33825;DHT22;20127;48.962;8.342;2023-10-13T18:53:47;22.00;52.20
33825;DHT22;20127;48.962;8.342;2023-10-13T18:56:49;22.50;51.20
33825;DHT22;20127;48.962;8.342;2023-10-13T18:59:52;22.80;50.40
33825;DHT22;20127;48.962;8.342;2023-10-13T19:02:53;23.10;49.80
33825;DHT22;20127;48.962;8.342;2023-10-13T19:05:55;23.30;49.20
33825;DHT22;20127;48.962;8.342;2023-10-13T19:09:01;23.50;48.50
33825;DHT22;20127;48.962;8.342;2023-10-13T19:12:05;23.80;48.00
33825;DHT22;20127;48.962;8.342;2023-10-13T19:15:09;24.00;47.60
33825;DHT22;20127;48.962;8.342;2023-10-13T19:18:13;24.20;47.00
33825;DHT22;20127;48.962;8.342;2023-10-13T19:21:15;24.30;46.40
33825;DHT22;20127;48.962;8.342;2023-10-13T19:24:19;24.40;46.10
33825;DHT22;20127;48.962;8.342;2023-10-13T19:27:22;24.50;45.80
33825;DHT22;20127;48.962;8.342;2023-10-13T19:30:26;24.60;45.80
33825;DHT22;20127;48.962;8.342;2023-10-13T19:33:32;24.50;45.80
33825;DHT22;20127;48.962;8.342;2023-10-13T19:36:33;24.50;45.70
33825;DHT22;20127;48.962;8.342;2023-10-13T19:39:36;24.50;45.70
33825;DHT22;20127;48.962;8.342;2023-10-13T19:42:42;24.30;45.60